sensor_id;sensor_type;location;lat;lon;timestamp;P1;durP1;ratioP1;P2;durP2;ratioP2
6985;SDS011;3533;51.246;6.850;2024-03-02T00:02:42;3.17;;;2.97;;
6985;SDS011;3533;51.246;6.850;2024-03-02T00:05:16;3.13;;;2.93;;
6985;SDS011;3533;51.246;6.850;2024-03-02T00:07:43;3.67;;;3.37;;
6985;SDS011;3533;51.246;6.850;2024-03-02T00:10:11;3.20;;;3.00;;
6985;SDS011;3533;51.246;6.850;2024-03-02T00:12:39;4.17;;;3.70;;
6985;SDS011;3533;51.246;6.850;2024-03-02T00:18:18;4.97;;;3.10;;
6985;SDS011;3533;51.246;6.850;2024-03-02T00:20:58;3.50;;;3.30;;
6985;SDS011;3533;51.246;6.850;2024-03-02T00:23:27;2.83;;;2.63;;
6985;SDS011;3533;51.246;6.850;2024-03-02T00:25:55;3.10;;;2.90;;
6985;SDS011;3533;51.246;6.850;2024-03-02T00:28:23;3.17;;;2.97;;
6985;SDS011;3533;51.246;6.850;2024-03-02T00:33:31;3.50;;;3.20;;
6985;SDS011;3533;51.246;6.850;2024-03-02T00:35:58;2.87;;;2.67;;
6985;SDS011;3533;51.246;6.850;2024-03-02T00:38:25;3.17;;;2.97;;
6985;SDS011;3533;51.246;6.850;2024-03-02T00:40:51;2.60;;;2.50;;
6985;SDS011;3533;51.246;6.850;2024-03-02T00:46:09;2.90;;;2.70;;
6985;SDS011;3533;51.246;6.850;2024-03-02T00:48:36;3.30;;;3.10;;
6985;SDS011;3533;51.246;6.850;2024-03-02T00:51:02;3.13;;;2.93;;
6985;SDS011;3533;51.246;6.850;2024-03-02T00:53:29;2.70;;;2.50;;
6985;SDS011;3533;51.246;6.850;2024-03-02T00:55:56;3.20;;;3.00;;
6985;SDS011;3533;51.246;6.850;2024-03-02T00:58:22;3.50;;;3.20;;
6985;SDS011;3533;51.246;6.850;2024-03-02T01:00:47;2.80;;;2.60;;
6985;SDS011;3533;51.246;6.850;2024-03-02T01:03:13;2.67;;;2.50;;
6985;SDS011;3533;51.246;6.850;2024-03-02T01:05:42;3.00;;;2.80;;
6985;SDS011;3533;51.246;6.850;2024-03-02T01:08:08;2.87;;;2.67;;
6985;SDS011;3533;51.246;6.850;2024-03-02T01:10:34;2.57;;;2.47;;
6985;SDS011;3533;51.246;6.850;2024-03-02T01:13:00;3.13;;;2.93;;
6985;SDS011;3533;51.246;6.850;2024-03-02T01:15:26;4.77;;;2.70;;
6985;SDS011;3533;51.246;6.850;2024-03-02T01:17:51;3.10;;;2.90;;
6985;SDS011;3533;51.246;6.850;2024-03-02T01:20:17;3.17;;;2.87;;
6985;SDS011;3533;51.246;6.850;2024-03-02T01:22:42;3.00;;;2.70;;
6985;SDS011;3533;51.246;6.850;2024-03-02T01:25:08;2.73;;;2.53;;
6985;SDS011;3533;51.246;6.850;2024-03-02T01:27:34;3.00;;;2.80;;
6985;SDS011;3533;51.246;6.850;2024-03-02T01:29:59;2.93;;;2.73;;
6985;SDS011;3533;51.246;6.850;2024-03-02T01:32:25;2.70;;;2.50;;
6985;SDS011;3533;51.246;6.850;2024-03-02T01:34:51;2.90;;;2.70;;
6985;SDS011;3533;51.246;6.850;2024-03-02T01:37:16;2.87;;;2.67;;
6985;SDS011;3533;51.246;6.850;2024-03-02T01:39:42;3.13;;;2.93;;
6985;SDS011;3533;51.246;6.850;2024-03-02T01:42:07;2.97;;;2.77;;
6985;SDS011;3533;51.246;6.850;2024-03-02T01:44:33;2.10;;;2.00;;
6985;SDS011;3533;51.246;6.850;2024-03-02T01:46:59;2.60;;;2.40;;
6985;SDS011;3533;51.246;6.850;2024-03-02T01:49:24;3.43;;;2.73;;
6985;SDS011;3533;51.246;6.850;2024-03-02T01:51:50;2.47;;;2.37;;
6985;SDS011;3533;51.246;6.850;2024-03-02T01:54:16;2.87;;;2.67;;
6985;SDS011;3533;51.246;6.850;2024-03-02T01:56:41;2.17;;;2.07;;
6985;SDS011;3533;51.246;6.850;2024-03-02T01:59:07;2.37;;;2.27;;
6985;SDS011;3533;51.246;6.850;2024-03-02T02:01:32;2.43;;;2.23;;
6985;SDS011;3533;51.246;6.850;2024-03-02T02:03:58;2.80;;;2.60;;
6985;SDS011;3533;51.246;6.850;2024-03-02T02:06:24;2.80;;;2.60;;
6985;SDS011;3533;51.246;6.850;2024-03-02T02:08:49;2.60;;;2.40;;
6985;SDS011;3533;51.246;6.850;2024-03-02T02:11:15;2.47;;;2.30;;
6985;SDS011;3533;51.246;6.850;2024-03-02T02:13:41;2.60;;;2.40;;
6985;SDS011;3533;51.246;6.850;2024-03-02T02:16:07;2.20;;;2.10;;
6985;SDS011;3533;51.246;6.850;2024-03-02T02:18:33;2.30;;;2.20;;
6985;SDS011;3533;51.246;6.850;2024-03-02T02:20:59;2.67;;;2.47;;
6985;SDS011;3533;51.246;6.850;2024-03-02T02:23:25;2.63;;;2.40;;
6985;SDS011;3533;51.246;6.850;2024-03-02T02:25:50;3.00;;;2.80;;
6985;SDS011;3533;51.246;6.850;2024-03-02T02:28:16;2.83;;;2.63;;
6985;SDS011;3533;51.246;6.850;2024-03-02T02:30:42;2.40;;;2.20;;
6985;SDS011;3533;51.246;6.850;2024-03-02T02:33:08;2.93;;;2.50;;
6985;SDS011;3533;51.246;6.850;2024-03-02T02:35:34;2.83;;;2.63;;
6985;SDS011;3533;51.246;6.850;2024-03-02T02:37:59;2.00;;;1.90;;
6985;SDS011;3533;51.246;6.850;2024-03-02T02:40:26;2.60;;;2.50;;
6985;SDS011;3533;51.246;6.850;2024-03-02T02:42:55;2.07;;;1.97;;
6985;SDS011;3533;51.246;6.850;2024-03-02T02:45:26;2.33;;;2.13;;
6985;SDS011;3533;51.246;6.850;2024-03-02T02:47:52;2.13;;;2.03;;
6985;SDS011;3533;51.246;6.850;2024-03-02T02:50:18;2.67;;;2.57;;
6985;SDS011;3533;51.246;6.850;2024-03-02T02:52:43;2.20;;;2.10;;
6985;SDS011;3533;51.246;6.850;2024-03-02T02:55:10;2.03;;;1.93;;
6985;SDS011;3533;51.246;6.850;2024-03-02T02:57:36;2.10;;;1.97;;
6985;SDS011;3533;51.246;6.850;2024-03-02T03:00:07;2.67;;;2.47;;
6985;SDS011;3533;51.246;6.850;2024-03-02T03:02:41;1.90;;;1.80;;
6985;SDS011;3533;51.246;6.850;2024-03-02T03:05:07;2.73;;;2.53;;
6985;SDS011;3533;51.246;6.850;2024-03-02T03:07:34;1.80;;;1.70;;
6985;SDS011;3533;51.246;6.850;2024-03-02T03:10:01;2.37;;;2.27;;
6985;SDS011;3533;51.246;6.850;2024-03-02T03:12:28;2.50;;;2.40;;
6985;SDS011;3533;51.246;6.850;2024-03-02T03:14:54;2.03;;;1.93;;
6985;SDS011;3533;51.246;6.850;2024-03-02T03:17:21;2.10;;;2.00;;
6985;SDS011;3533;51.246;6.850;2024-03-02T03:19:47;1.97;;;1.80;;
6985;SDS011;3533;51.246;6.850;2024-03-02T03:22:12;2.03;;;1.93;;
6985;SDS011;3533;51.246;6.850;2024-03-02T03:24:38;1.93;;;1.83;;
6985;SDS011;3533;51.246;6.850;2024-03-02T03:27:04;2.30;;;2.17;;
6985;SDS011;3533;51.246;6.850;2024-03-02T03:29:29;1.97;;;1.87;;
6985;SDS011;3533;51.246;6.850;2024-03-02T03:31:55;2.10;;;2.00;;
6985;SDS011;3533;51.246;6.850;2024-03-02T03:34:20;2.00;;;1.90;;
6985;SDS011;3533;51.246;6.850;2024-03-02T03:36:46;2.00;;;1.90;;
6985;SDS011;3533;51.246;6.850;2024-03-02T03:39:11;2.50;;;2.10;;
6985;SDS011;3533;51.246;6.850;2024-03-02T03:41:37;1.90;;;1.80;;
6985;SDS011;3533;51.246;6.850;2024-03-02T03:44:03;2.17;;;2.07;;
6985;SDS011;3533;51.246;6.850;2024-03-02T03:46:29;1.80;;;1.70;;
6985;SDS011;3533;51.246;6.850;2024-03-02T03:48:54;2.27;;;2.17;;
6985;SDS011;3533;51.246;6.850;2024-03-02T03:51:21;2.10;;;1.90;;
6985;SDS011;3533;51.246;6.850;2024-03-02T03:53:48;1.83;;;1.73;;
6985;SDS011;3533;51.246;6.850;2024-03-02T03:56:13;1.90;;;1.80;;
6985;SDS011;3533;51.246;6.850;2024-03-02T03:58:39;2.03;;;1.93;;
6985;SDS011;3533;51.246;6.850;2024-03-02T04:01:05;1.87;;;1.77;;
6985;SDS011;3533;51.246;6.850;2024-03-02T04:03:30;1.97;;;1.87;;
6985;SDS011;3533;51.246;6.850;2024-03-02T04:05:56;2.00;;;1.90;;
6985;SDS011;3533;51.246;6.850;2024-03-02T04:08:21;1.80;;;1.70;;
6985;SDS011;3533;51.246;6.850;2024-03-02T04:10:47;2.07;;;1.90;;
6985;SDS011;3533;51.246;6.850;2024-03-02T04:13:13;2.43;;;2.23;;
6985;SDS011;3533;51.246;6.850;2024-03-02T04:15:38;1.93;;;1.83;;
6985;SDS011;3533;51.246;6.850;2024-03-02T04:18:05;1.77;;;1.67;;
6985;SDS011;3533;51.246;6.850;2024-03-02T04:20:31;1.60;;;1.50;;
6985;SDS011;3533;51.246;6.850;2024-03-02T04:22:57;1.70;;;1.60;;
6985;SDS011;3533;51.246;6.850;2024-03-02T04:25:22;2.00;;;1.90;;
6985;SDS011;3533;51.246;6.850;2024-03-02T04:27:48;1.63;;;1.53;;
6985;SDS011;3533;51.246;6.850;2024-03-02T04:30:13;1.60;;;1.50;;
6985;SDS011;3533;51.246;6.850;2024-03-02T04:32:39;1.90;;;1.80;;
6985;SDS011;3533;51.246;6.850;2024-03-02T04:35:05;2.00;;;1.90;;
6985;SDS011;3533;51.246;6.850;2024-03-02T04:37:34;1.90;;;1.80;;
6985;SDS011;3533;51.246;6.850;2024-03-02T04:39:59;1.87;;;1.77;;
6985;SDS011;3533;51.246;6.850;2024-03-02T04:42:25;1.80;;;1.70;;
6985;SDS011;3533;51.246;6.850;2024-03-02T04:44:51;1.80;;;1.70;;
6985;SDS011;3533;51.246;6.850;2024-03-02T04:47:16;1.90;;;1.77;;
6985;SDS011;3533;51.246;6.850;2024-03-02T04:49:42;1.80;;;1.70;;
6985;SDS011;3533;51.246;6.850;2024-03-02T04:52:08;2.00;;;1.90;;
6985;SDS011;3533;51.246;6.850;2024-03-02T04:54:34;1.60;;;1.50;;
6985;SDS011;3533;51.246;6.850;2024-03-02T04:57:19;1.90;;;1.80;;
6985;SDS011;3533;51.246;6.850;2024-03-02T04:59:45;1.80;;;1.70;;
6985;SDS011;3533;51.246;6.850;2024-03-02T05:02:10;1.83;;;1.73;;
6985;SDS011;3533;51.246;6.850;2024-03-02T05:04:39;1.53;;;1.43;;
6985;SDS011;3533;51.246;6.850;2024-03-02T05:07:05;1.87;;;1.77;;
6985;SDS011;3533;51.246;6.850;2024-03-02T05:09:30;2.00;;;1.83;;
6985;SDS011;3533;51.246;6.850;2024-03-02T05:11:56;1.67;;;1.57;;
6985;SDS011;3533;51.246;6.850;2024-03-02T05:14:40;1.80;;;1.70;;
6985;SDS011;3533;51.246;6.850;2024-03-02T05:17:06;1.60;;;1.50;;
6985;SDS011;3533;51.246;6.850;2024-03-02T05:19:31;2.03;;;1.93;;
6985;SDS011;3533;51.246;6.850;2024-03-02T05:21:57;1.67;;;1.57;;
6985;SDS011;3533;51.246;6.850;2024-03-02T05:24:23;1.70;;;1.60;;
6985;SDS011;3533;51.246;6.850;2024-03-02T05:26:48;1.77;;;1.67;;
6985;SDS011;3533;51.246;6.850;2024-03-02T05:29:14;1.43;;;1.33;;
6985;SDS011;3533;51.246;6.850;2024-03-02T05:31:40;1.63;;;1.53;;
6985;SDS011;3533;51.246;6.850;2024-03-02T05:34:05;1.53;;;1.43;;
6985;SDS011;3533;51.246;6.850;2024-03-02T05:36:31;1.67;;;1.57;;
6985;SDS011;3533;51.246;6.850;2024-03-02T05:38:57;1.37;;;1.27;;
6985;SDS011;3533;51.246;6.850;2024-03-02T05:41:22;1.60;;;1.50;;
6985;SDS011;3533;51.246;6.850;2024-03-02T05:43:48;1.70;;;1.60;;
6985;SDS011;3533;51.246;6.850;2024-03-02T05:46:14;1.43;;;1.33;;
6985;SDS011;3533;51.246;6.850;2024-03-02T05:48:40;1.47;;;1.37;;
6985;SDS011;3533;51.246;6.850;2024-03-02T05:51:05;1.67;;;1.30;;
6985;SDS011;3533;51.246;6.850;2024-03-02T05:53:31;1.70;;;1.60;;
6985;SDS011;3533;51.246;6.850;2024-03-02T05:55:56;1.50;;;1.40;;
6985;SDS011;3533;51.246;6.850;2024-03-02T05:58:22;1.50;;;1.40;;
6985;SDS011;3533;51.246;6.850;2024-03-02T06:01:18;1.40;;;1.30;;
6985;SDS011;3533;51.246;6.850;2024-03-02T06:03:44;1.60;;;1.50;;
6985;SDS011;3533;51.246;6.850;2024-03-02T06:06:09;1.53;;;1.43;;
6985;SDS011;3533;51.246;6.850;2024-03-02T06:08:35;1.90;;;1.80;;
6985;SDS011;3533;51.246;6.850;2024-03-02T06:11:01;1.93;;;1.77;;
6985;SDS011;3533;51.246;6.850;2024-03-02T06:13:27;1.63;;;1.53;;
6985;SDS011;3533;51.246;6.850;2024-03-02T06:15:53;1.80;;;1.70;;
6985;SDS011;3533;51.246;6.850;2024-03-02T06:18:19;1.83;;;1.70;;
6985;SDS011;3533;51.246;6.850;2024-03-02T06:20:44;1.70;;;1.60;;
6985;SDS011;3533;51.246;6.850;2024-03-02T06:23:10;1.77;;;1.40;;
6985;SDS011;3533;51.246;6.850;2024-03-02T06:25:35;1.50;;;1.40;;
6985;SDS011;3533;51.246;6.850;2024-03-02T06:28:01;1.60;;;1.50;;
6985;SDS011;3533;51.246;6.850;2024-03-02T06:30:27;1.90;;;1.60;;
6985;SDS011;3533;51.246;6.850;2024-03-02T06:32:53;1.87;;;1.77;;
6985;SDS011;3533;51.246;6.850;2024-03-02T06:35:18;1.70;;;1.60;;
6985;SDS011;3533;51.246;6.850;2024-03-02T06:37:44;2.03;;;1.93;;
6985;SDS011;3533;51.246;6.850;2024-03-02T06:40:09;1.77;;;1.67;;
6985;SDS011;3533;51.246;6.850;2024-03-02T06:42:35;1.60;;;1.50;;
6985;SDS011;3533;51.246;6.850;2024-03-02T06:45:01;1.60;;;1.50;;
6985;SDS011;3533;51.246;6.850;2024-03-02T06:47:27;1.90;;;1.80;;
6985;SDS011;3533;51.246;6.850;2024-03-02T06:49:53;1.83;;;1.70;;
6985;SDS011;3533;51.246;6.850;2024-03-02T06:52:19;1.50;;;1.40;;
6985;SDS011;3533;51.246;6.850;2024-03-02T06:54:45;1.80;;;1.70;;
6985;SDS011;3533;51.246;6.850;2024-03-02T06:57:11;1.67;;;1.57;;
6985;SDS011;3533;51.246;6.850;2024-03-02T06:59:37;1.47;;;1.37;;
6985;SDS011;3533;51.246;6.850;2024-03-02T07:02:02;2.57;;;1.60;;
6985;SDS011;3533;51.246;6.850;2024-03-02T07:04:28;1.70;;;1.60;;
6985;SDS011;3533;51.246;6.850;2024-03-02T07:06:54;1.73;;;1.63;;
6985;SDS011;3533;51.246;6.850;2024-03-02T07:09:20;2.10;;;2.00;;
6985;SDS011;3533;51.246;6.850;2024-03-02T07:11:47;1.60;;;1.50;;
6985;SDS011;3533;51.246;6.850;2024-03-02T07:14:13;1.50;;;1.40;;
6985;SDS011;3533;51.246;6.850;2024-03-02T07:16:39;1.60;;;1.50;;
6985;SDS011;3533;51.246;6.850;2024-03-02T07:19:05;1.70;;;1.60;;
6985;SDS011;3533;51.246;6.850;2024-03-02T07:21:31;1.43;;;1.30;;
6985;SDS011;3533;51.246;6.850;2024-03-02T07:23:58;1.60;;;1.50;;
6985;SDS011;3533;51.246;6.850;2024-03-02T07:26:24;1.30;;;1.20;;
6985;SDS011;3533;51.246;6.850;2024-03-02T07:28:50;1.67;;;1.57;;
6985;SDS011;3533;51.246;6.850;2024-03-02T07:31:16;2.33;;;1.90;;
6985;SDS011;3533;51.246;6.850;2024-03-02T07:33:43;1.50;;;1.40;;
6985;SDS011;3533;51.246;6.850;2024-03-02T07:36:10;1.87;;;1.77;;
6985;SDS011;3533;51.246;6.850;2024-03-02T07:38:37;1.87;;;1.77;;
6985;SDS011;3533;51.246;6.850;2024-03-02T07:41:03;2.07;;;1.97;;
6985;SDS011;3533;51.246;6.850;2024-03-02T07:43:29;2.00;;;1.90;;
6985;SDS011;3533;51.246;6.850;2024-03-02T07:45:56;2.00;;;1.90;;
6985;SDS011;3533;51.246;6.850;2024-03-02T07:48:22;3.73;;;1.60;;
6985;SDS011;3533;51.246;6.850;2024-03-02T07:50:48;2.00;;;1.90;;
6985;SDS011;3533;51.246;6.850;2024-03-02T07:53:13;1.90;;;1.70;;
6985;SDS011;3533;51.246;6.850;2024-03-02T07:55:39;3.10;;;2.00;;
6985;SDS011;3533;51.246;6.850;2024-03-02T07:58:05;2.00;;;1.87;;
6985;SDS011;3533;51.246;6.850;2024-03-02T08:00:31;2.33;;;2.13;;
6985;SDS011;3533;51.246;6.850;2024-03-02T08:02:57;1.60;;;1.50;;
6985;SDS011;3533;51.246;6.850;2024-03-02T08:05:23;1.40;;;1.30;;
6985;SDS011;3533;51.246;6.850;2024-03-02T08:07:49;1.70;;;1.60;;
6985;SDS011;3533;51.246;6.850;2024-03-02T08:10:17;3.00;;;1.60;;
6985;SDS011;3533;51.246;6.850;2024-03-02T08:12:44;1.80;;;1.67;;
6985;SDS011;3533;51.246;6.850;2024-03-02T08:15:09;1.40;;;1.30;;
6985;SDS011;3533;51.246;6.850;2024-03-02T08:17:35;3.33;;;1.90;;
6985;SDS011;3533;51.246;6.850;2024-03-02T08:20:00;2.10;;;1.90;;
6985;SDS011;3533;51.246;6.850;2024-03-02T08:22:27;1.63;;;1.53;;
6985;SDS011;3533;51.246;6.850;2024-03-02T08:24:53;1.47;;;1.37;;
6985;SDS011;3533;51.246;6.850;2024-03-02T08:27:19;1.80;;;1.70;;
6985;SDS011;3533;51.246;6.850;2024-03-02T08:29:45;1.90;;;1.60;;
6985;SDS011;3533;51.246;6.850;2024-03-02T08:32:10;1.47;;;1.37;;
6985;SDS011;3533;51.246;6.850;2024-03-02T08:34:36;1.67;;;1.53;;
6985;SDS011;3533;51.246;6.850;2024-03-02T08:37:02;1.50;;;1.40;;
6985;SDS011;3533;51.246;6.850;2024-03-02T08:39:28;1.63;;;1.53;;
6985;SDS011;3533;51.246;6.850;2024-03-02T08:41:54;1.67;;;1.57;;
6985;SDS011;3533;51.246;6.850;2024-03-02T08:44:19;1.70;;;1.60;;
6985;SDS011;3533;51.246;6.850;2024-03-02T08:46:45;1.60;;;1.50;;
6985;SDS011;3533;51.246;6.850;2024-03-02T08:49:12;1.47;;;1.37;;
6985;SDS011;3533;51.246;6.850;2024-03-02T08:51:38;1.93;;;1.50;;
6985;SDS011;3533;51.246;6.850;2024-03-02T08:54:03;1.93;;;1.83;;
6985;SDS011;3533;51.246;6.850;2024-03-02T08:56:29;1.60;;;1.50;;
6985;SDS011;3533;51.246;6.850;2024-03-02T08:58:55;3.17;;;1.60;;
6985;SDS011;3533;51.246;6.850;2024-03-02T09:01:21;9.60;;;2.20;;
6985;SDS011;3533;51.246;6.850;2024-03-02T09:03:47;3.33;;;1.60;;
6985;SDS011;3533;51.246;6.850;2024-03-02T09:06:14;2.37;;;1.97;;
6985;SDS011;3533;51.246;6.850;2024-03-02T09:08:42;2.43;;;1.73;;
6985;SDS011;3533;51.246;6.850;2024-03-02T09:11:08;2.00;;;1.80;;
6985;SDS011;3533;51.246;6.850;2024-03-02T09:13:35;1.70;;;1.60;;
6985;SDS011;3533;51.246;6.850;2024-03-02T09:16:02;2.07;;;1.70;;
6985;SDS011;3533;51.246;6.850;2024-03-02T09:18:29;1.93;;;1.73;;
6985;SDS011;3533;51.246;6.850;2024-03-02T09:20:54;3.67;;;1.87;;
6985;SDS011;3533;51.246;6.850;2024-03-02T09:23:20;2.13;;;2.03;;
6985;SDS011;3533;51.246;6.850;2024-03-02T09:25:46;2.60;;;1.67;;
6985;SDS011;3533;51.246;6.850;2024-03-02T09:28:12;4.00;;;1.63;;
6985;SDS011;3533;51.246;6.850;2024-03-02T09:30:40;2.00;;;1.90;;
6985;SDS011;3533;51.246;6.850;2024-03-02T09:33:05;2.33;;;1.50;;
6985;SDS011;3533;51.246;6.850;2024-03-02T09:35:32;1.73;;;1.53;;
6985;SDS011;3533;51.246;6.850;2024-03-02T09:37:57;1.40;;;1.30;;
6985;SDS011;3533;51.246;6.850;2024-03-02T09:40:23;1.93;;;1.67;;
6985;SDS011;3533;51.246;6.850;2024-03-02T09:42:48;1.63;;;1.43;;
6985;SDS011;3533;51.246;6.850;2024-03-02T09:45:17;3.50;;;1.50;;
6985;SDS011;3533;51.246;6.850;2024-03-02T09:47:47;2.47;;;1.50;;
6985;SDS011;3533;51.246;6.850;2024-03-02T09:50:13;2.80;;;1.50;;
6985;SDS011;3533;51.246;6.850;2024-03-02T09:52:39;2.17;;;1.63;;
6985;SDS011;3533;51.246;6.850;2024-03-02T09:55:07;1.80;;;1.70;;
6985;SDS011;3533;51.246;6.850;2024-03-02T09:57:33;1.97;;;1.60;;
6985;SDS011;3533;51.246;6.850;2024-03-02T09:59:58;3.47;;;1.40;;
6985;SDS011;3533;51.246;6.850;2024-03-02T10:02:24;1.40;;;1.30;;
6985;SDS011;3533;51.246;6.850;2024-03-02T10:04:50;2.67;;;1.60;;
6985;SDS011;3533;51.246;6.850;2024-03-02T10:07:16;2.03;;;1.37;;
6985;SDS011;3533;51.246;6.850;2024-03-02T10:09:43;1.67;;;1.57;;
6985;SDS011;3533;51.246;6.850;2024-03-02T10:12:11;2.60;;;1.33;;
6985;SDS011;3533;51.246;6.850;2024-03-02T10:14:38;2.77;;;1.53;;
6985;SDS011;3533;51.246;6.850;2024-03-02T10:17:07;1.20;;;1.10;;
6985;SDS011;3533;51.246;6.850;2024-03-02T10:19:34;1.40;;;1.30;;
6985;SDS011;3533;51.246;6.850;2024-03-02T10:22:02;1.87;;;1.20;;
6985;SDS011;3533;51.246;6.850;2024-03-02T10:24:34;1.40;;;1.30;;
6985;SDS011;3533;51.246;6.850;2024-03-02T10:27:08;1.70;;;1.00;;
6985;SDS011;3533;51.246;6.850;2024-03-02T10:29:36;1.20;;;1.07;;
6985;SDS011;3533;51.246;6.850;2024-03-02T10:32:04;1.20;;;1.10;;
6985;SDS011;3533;51.246;6.850;2024-03-02T10:34:31;1.43;;;1.10;;
6985;SDS011;3533;51.246;6.850;2024-03-02T10:36:57;0.97;;;0.90;;
6985;SDS011;3533;51.246;6.850;2024-03-02T10:39:23;1.67;;;1.07;;
6985;SDS011;3533;51.246;6.850;2024-03-02T10:41:49;1.20;;;1.10;;
6985;SDS011;3533;51.246;6.850;2024-03-02T10:44:18;1.10;;;1.00;;
6985;SDS011;3533;51.246;6.850;2024-03-02T10:46:44;1.20;;;1.10;;
6985;SDS011;3533;51.246;6.850;2024-03-02T10:49:12;1.30;;;1.10;;
6985;SDS011;3533;51.246;6.850;2024-03-02T10:51:37;1.00;;;0.90;;
6985;SDS011;3533;51.246;6.850;2024-03-02T10:54:03;1.10;;;1.00;;
6985;SDS011;3533;51.246;6.850;2024-03-02T10:56:33;0.93;;;0.80;;
6985;SDS011;3533;51.246;6.850;2024-03-02T10:59:17;1.10;;;1.00;;
6985;SDS011;3533;51.246;6.850;2024-03-02T11:01:50;0.80;;;0.80;;
6985;SDS011;3533;51.246;6.850;2024-03-02T11:04:18;1.10;;;1.00;;
6985;SDS011;3533;51.246;6.850;2024-03-02T11:06:46;0.80;;;0.77;;
6985;SDS011;3533;51.246;6.850;2024-03-02T11:09:14;1.13;;;1.03;;
6985;SDS011;3533;51.246;6.850;2024-03-02T11:11:47;0.80;;;0.80;;
6985;SDS011;3533;51.246;6.850;2024-03-02T11:14:21;0.77;;;0.77;;
6985;SDS011;3533;51.246;6.850;2024-03-02T11:16:50;1.33;;;1.00;;
6985;SDS011;3533;51.246;6.850;2024-03-02T11:19:17;1.00;;;0.90;;
6985;SDS011;3533;51.246;6.850;2024-03-02T11:21:43;1.00;;;0.90;;
6985;SDS011;3533;51.246;6.850;2024-03-02T11:26:52;1.10;;;0.90;;
6985;SDS011;3533;51.246;6.850;2024-03-02T11:32:05;1.00;;;0.90;;
6985;SDS011;3533;51.246;6.850;2024-03-02T11:34:38;0.90;;;0.80;;
6985;SDS011;3533;51.246;6.850;2024-03-02T11:37:10;1.60;;;1.03;;
6985;SDS011;3533;51.246;6.850;2024-03-02T11:39:36;2.17;;;1.63;;
6985;SDS011;3533;51.246;6.850;2024-03-02T11:42:05;1.00;;;0.90;;
6985;SDS011;3533;51.246;6.850;2024-03-02T11:44:39;1.00;;;0.90;;
6985;SDS011;3533;51.246;6.850;2024-03-02T11:47:07;1.00;;;0.90;;
6985;SDS011;3533;51.246;6.850;2024-03-02T11:52:14;1.00;;;0.90;;
6985;SDS011;3533;51.246;6.850;2024-03-02T11:54:43;1.80;;;1.70;;
6985;SDS011;3533;51.246;6.850;2024-03-02T11:57:14;1.10;;;0.90;;
6985;SDS011;3533;51.246;6.850;2024-03-02T11:59:41;1.10;;;1.00;;
6985;SDS011;3533;51.246;6.850;2024-03-02T12:02:12;1.20;;;0.80;;
6985;SDS011;3533;51.246;6.850;2024-03-02T12:04:41;0.90;;;0.80;;
6985;SDS011;3533;51.246;6.850;2024-03-02T12:07:07;1.07;;;0.90;;
6985;SDS011;3533;51.246;6.850;2024-03-02T12:09:34;1.37;;;1.13;;
6985;SDS011;3533;51.246;6.850;2024-03-02T12:14:33;1.30;;;1.20;;
6985;SDS011;3533;51.246;6.850;2024-03-02T12:17:00;1.00;;;0.90;;
6985;SDS011;3533;51.246;6.850;2024-03-02T12:19:26;1.77;;;1.00;;
6985;SDS011;3533;51.246;6.850;2024-03-02T12:21:55;1.57;;;0.80;;
6985;SDS011;3533;51.246;6.850;2024-03-02T12:24:21;1.10;;;1.00;;
6985;SDS011;3533;51.246;6.850;2024-03-02T12:26:49;1.03;;;0.93;;
6985;SDS011;3533;51.246;6.850;2024-03-02T12:29:15;0.80;;;0.70;;
6985;SDS011;3533;51.246;6.850;2024-03-02T12:31:44;1.53;;;0.90;;
6985;SDS011;3533;51.246;6.850;2024-03-02T12:34:13;2.83;;;0.90;;
6985;SDS011;3533;51.246;6.850;2024-03-02T12:36:40;1.43;;;0.80;;
6985;SDS011;3533;51.246;6.850;2024-03-02T12:39:07;0.83;;;0.83;;
6985;SDS011;3533;51.246;6.850;2024-03-02T12:41:39;0.83;;;0.70;;
6985;SDS011;3533;51.246;6.850;2024-03-02T12:44:05;1.93;;;1.10;;
6985;SDS011;3533;51.246;6.850;2024-03-02T12:46:31;0.70;;;0.70;;
6985;SDS011;3533;51.246;6.850;2024-03-02T12:48:58;0.97;;;0.90;;
6985;SDS011;3533;51.246;6.850;2024-03-02T12:51:29;1.30;;;0.80;;
6985;SDS011;3533;51.246;6.850;2024-03-02T12:53:55;0.80;;;0.80;;
6985;SDS011;3533;51.246;6.850;2024-03-02T12:56:22;0.70;;;0.70;;
6985;SDS011;3533;51.246;6.850;2024-03-02T12:58:52;0.93;;;0.83;;
6985;SDS011;3533;51.246;6.850;2024-03-02T13:01:21;1.03;;;0.70;;
6985;SDS011;3533;51.246;6.850;2024-03-02T13:03:50;2.13;;;1.00;;
6985;SDS011;3533;51.246;6.850;2024-03-02T13:06:17;0.87;;;0.87;;
6985;SDS011;3533;51.246;6.850;2024-03-02T13:08:45;2.60;;;0.93;;
6985;SDS011;3533;51.246;6.850;2024-03-02T13:11:11;0.80;;;0.80;;
6985;SDS011;3533;51.246;6.850;2024-03-02T13:13:38;1.40;;;0.90;;
6985;SDS011;3533;51.246;6.850;2024-03-02T13:16:07;1.00;;;0.80;;
6985;SDS011;3533;51.246;6.850;2024-03-02T13:18:36;0.87;;;0.80;;
6985;SDS011;3533;51.246;6.850;2024-03-02T13:21:03;2.43;;;0.80;;
6985;SDS011;3533;51.246;6.850;2024-03-02T13:23:29;1.23;;;0.90;;
6985;SDS011;3533;51.246;6.850;2024-03-02T13:25:58;1.00;;;0.80;;
6985;SDS011;3533;51.246;6.850;2024-03-02T13:28:27;1.10;;;0.90;;
6985;SDS011;3533;51.246;6.850;2024-03-02T13:30:53;1.00;;;0.90;;
6985;SDS011;3533;51.246;6.850;2024-03-02T13:33:18;0.80;;;0.80;;
6985;SDS011;3533;51.246;6.850;2024-03-02T13:35:51;1.10;;;1.00;;
6985;SDS011;3533;51.246;6.850;2024-03-02T13:38:17;1.07;;;0.90;;
6985;SDS011;3533;51.246;6.850;2024-03-02T13:40:43;0.80;;;0.77;;
6985;SDS011;3533;51.246;6.850;2024-03-02T13:43:09;1.27;;;0.80;;
6985;SDS011;3533;51.246;6.850;2024-03-02T13:45:35;0.93;;;0.83;;
6985;SDS011;3533;51.246;6.850;2024-03-02T13:48:01;1.30;;;1.03;;
6985;SDS011;3533;51.246;6.850;2024-03-02T13:50:28;1.40;;;1.27;;
6985;SDS011;3533;51.246;6.850;2024-03-02T13:52:55;1.00;;;0.90;;
6985;SDS011;3533;51.246;6.850;2024-03-02T13:55:21;1.47;;;1.00;;
6985;SDS011;3533;51.246;6.850;2024-03-02T13:57:46;1.23;;;1.10;;
6985;SDS011;3533;51.246;6.850;2024-03-02T14:00:13;0.87;;;0.80;;
6985;SDS011;3533;51.246;6.850;2024-03-02T14:02:40;1.13;;;0.80;;
6985;SDS011;3533;51.246;6.850;2024-03-02T14:05:06;2.10;;;1.00;;
6985;SDS011;3533;51.246;6.850;2024-03-02T14:07:36;0.70;;;0.70;;
6985;SDS011;3533;51.246;6.850;2024-03-02T14:10:03;1.20;;;0.80;;
6985;SDS011;3533;51.246;6.850;2024-03-02T14:12:28;1.10;;;0.93;;
6985;SDS011;3533;51.246;6.850;2024-03-02T14:14:54;0.97;;;0.80;;
6985;SDS011;3533;51.246;6.850;2024-03-02T14:17:23;1.00;;;0.90;;
6985;SDS011;3533;51.246;6.850;2024-03-02T14:19:51;1.37;;;1.07;;
6985;SDS011;3533;51.246;6.850;2024-03-02T14:22:18;1.03;;;0.93;;
6985;SDS011;3533;51.246;6.850;2024-03-02T14:24:44;1.00;;;0.90;;
6985;SDS011;3533;51.246;6.850;2024-03-02T14:27:11;0.80;;;0.80;;
6985;SDS011;3533;51.246;6.850;2024-03-02T14:29:36;1.20;;;1.10;;
6985;SDS011;3533;51.246;6.850;2024-03-02T14:32:04;0.90;;;0.80;;
6985;SDS011;3533;51.246;6.850;2024-03-02T14:34:30;0.80;;;0.70;;
6985;SDS011;3533;51.246;6.850;2024-03-02T14:36:56;0.80;;;0.70;;
6985;SDS011;3533;51.246;6.850;2024-03-02T14:39:21;0.70;;;0.70;;
6985;SDS011;3533;51.246;6.850;2024-03-02T14:41:47;1.00;;;0.90;;
6985;SDS011;3533;51.246;6.850;2024-03-02T14:44:14;1.00;;;0.90;;
6985;SDS011;3533;51.246;6.850;2024-03-02T14:46:40;0.83;;;0.83;;
6985;SDS011;3533;51.246;6.850;2024-03-02T14:49:06;0.93;;;0.80;;
6985;SDS011;3533;51.246;6.850;2024-03-02T14:51:32;1.00;;;0.90;;
6985;SDS011;3533;51.246;6.850;2024-03-02T14:53:58;0.90;;;0.80;;
6985;SDS011;3533;51.246;6.850;2024-03-02T14:56:23;1.10;;;1.00;;
6985;SDS011;3533;51.246;6.850;2024-03-02T14:58:49;0.80;;;0.80;;
6985;SDS011;3533;51.246;6.850;2024-03-02T15:01:16;1.20;;;0.87;;
6985;SDS011;3533;51.246;6.850;2024-03-02T15:03:42;0.90;;;0.90;;
6985;SDS011;3533;51.246;6.850;2024-03-02T15:06:08;0.90;;;0.90;;
6985;SDS011;3533;51.246;6.850;2024-03-02T15:08:34;1.00;;;1.00;;
6985;SDS011;3533;51.246;6.850;2024-03-02T15:11:00;0.80;;;0.77;;
6985;SDS011;3533;51.246;6.850;2024-03-02T15:13:28;1.67;;;1.00;;
6985;SDS011;3533;51.246;6.850;2024-03-02T15:15:54;0.90;;;0.80;;
6985;SDS011;3533;51.246;6.850;2024-03-02T15:18:20;1.00;;;0.80;;
6985;SDS011;3533;51.246;6.850;2024-03-02T15:20:45;1.30;;;1.00;;
6985;SDS011;3533;51.246;6.850;2024-03-02T15:23:11;2.30;;;0.80;;
6985;SDS011;3533;51.246;6.850;2024-03-02T15:25:37;2.67;;;0.90;;
6985;SDS011;3533;51.246;6.850;2024-03-02T15:28:02;1.50;;;0.90;;
6985;SDS011;3533;51.246;6.850;2024-03-02T15:30:28;1.50;;;0.83;;
6985;SDS011;3533;51.246;6.850;2024-03-02T15:32:54;1.90;;;0.80;;